Time;durP1;ratioP1;P1;durP2;ratioP2;P2;SDS_P1;SDS_P2;PMS_P1;PMS_P2;Temp;Humidity;BMP_temperature;BMP_pressure;BME280_temperature;BME280_humidity;BME280_pressure;Samples;Min_cycle;Max_cycle;Signal;HPM_P1;HPM_P2
2022/01/22 00:00:29;;;;;;;21.38;7.43;;;-1.20;99.90;;;;;;5054301;28;20025;-94
2022/01/22 00:02:54;;;;;;;15.57;8.10;;;-1.20;99.90;;;;;;5041290;28;20027;-94
2022/01/22 00:05:21;;;;;;;13.85;7.53;;;-1.20;99.90;;;;;;5041437;28;20048;-93
2022/01/22 00:07:47;;;;;;;12.90;6.68;;;-1.20;99.90;;;;;;5039915;28;20140;-93
2022/01/22 00:10:15;;;;;;;17.52;7.85;;;-1.10;99.90;;;;;;5042226;28;20475;-95
2022/01/22 00:15:18;;;;;;;16.88;7.22;;;-1.10;99.90;;;;;;5058772;28;20029;-96
2022/01/22 00:17:46;;;;;;;15.57;7.00;;;-1.00;99.90;;;;;;5043371;28;20029;-96
2022/01/22 00:20:13;;;;;;;15.07;6.95;;;-1.00;99.90;;;;;;5039540;28;20119;-95
2022/01/22 00:22:39;;;;;;;13.27;6.50;;;-0.90;99.90;;;;;;5039804;28;20032;-94
2022/01/22 00:25:09;;;;;;;13.02;6.60;;;-0.90;99.90;;;;;;5040081;28;20387;-93
2022/01/22 00:27:41;;;;;;;14.38;6.60;;;-0.90;99.90;;;;;;5041512;28;20159;-96
2022/01/22 00:30:10;;;;;;;15.35;6.70;;;-0.90;99.90;;;;;;5040312;28;20073;-92
2022/01/22 00:32:36;;;;;;;11.18;6.05;;;-0.90;99.90;;;;;;5040369;28;20033;-96
2022/01/22 00:35:02;;;;;;;14.75;6.35;;;-0.90;99.90;;;;;;5040423;28;20025;-95
2022/01/22 00:37:28;;;;;;;15.20;6.25;;;-0.80;99.90;;;;;;5039634;28;20029;-94
2022/01/22 00:39:54;;;;;;;13.55;6.53;;;-0.80;99.90;;;;;;5039710;28;20472;-93
2022/01/22 00:42:21;;;;;;;13.80;5.85;;;-0.90;99.90;;;;;;5042525;28;20024;-96
2022/01/22 00:44:49;;;;;;;13.20;6.88;;;-0.90;99.90;;;;;;5041978;28;20075;-95
2022/01/22 00:47:18;;;;;;;11.73;6.35;;;-0.90;99.90;;;;;;5045739;28;20028;-96
2022/01/22 00:49:44;;;;;;;16.00;6.90;;;-0.90;99.90;;;;;;5044030;28;20082;-94
2022/01/22 00:52:13;;;;;;;14.55;7.47;;;-1.00;99.90;;;;;;5042177;28;20093;-96
2022/01/22 00:54:41;;;;;;;16.17;6.78;;;-1.00;99.90;;;;;;5058342;28;20047;-96
2022/01/22 00:57:06;;;;;;;14.88;7.25;;;-1.00;99.90;;;;;;5042596;28;20029;-93
2022/01/22 00:59:32;;;;;;;15.75;6.93;;;-1.00;99.90;;;;;;5039496;28;20020;-95
2022/01/22 01:01:58;;;;;;;11.32;5.88;;;-1.00;99.90;;;;;;5039058;28;20025;-92
2022/01/22 01:04:24;;;;;;;14.02;6.63;;;-1.00;99.90;;;;;;5042845;28;20032;-96
2022/01/22 01:06:50;;;;;;;10.18;5.88;;;-1.00;99.90;;;;;;5041624;28;20029;-95
2022/01/22 01:09:17;;;;;;;14.85;6.88;;;-1.00;99.90;;;;;;5040872;28;20118;-93
2022/01/22 01:11:48;;;;;;;16.15;6.70;;;-1.10;99.90;;;;;;5050720;28;20031;-92
2022/01/22 01:14:21;;;;;;;13.38;7.18;;;-1.10;99.90;;;;;;5038981;28;20032;-93
2022/01/22 01:33:37;;;;;;;13.50;6.53;;;-1.00;99.90;;;;;;5058442;28;20036;-93
2022/01/22 01:36:05;;;;;;;10.15;6.25;;;-1.00;99.90;;;;;;5056942;28;20029;-93
2022/01/22 01:38:37;;;;;;;9.25;6.10;;;-1.00;99.90;;;;;;5038163;28;20025;-93
2022/01/22 01:41:11;;;;;;;15.00;7.75;;;-0.90;99.90;;;;;;5038652;28;20025;-92
2022/01/22 01:43:43;;;;;;;15.75;6.90;;;-0.90;99.90;;;;;;5038502;28;20029;-96
2022/01/22 01:46:09;;;;;;;11.85;6.50;;;-0.90;99.90;;;;;;5039530;28;20017;-94
2022/01/22 01:48:38;;;;;;;11.23;6.60;;;-0.90;99.90;;;;;;5040304;28;20021;-94
2022/01/22 01:51:05;;;;;;;12.20;6.47;;;-0.90;99.90;;;;;;5039414;28;20456;-96
2022/01/22 01:58:29;;;;;;;13.05;6.57;;;-0.90;99.90;;;;;;5057480;28;20021;-96
2022/01/22 02:00:57;;;;;;;15.10;7.32;;;-0.90;99.90;;;;;;5039643;28;20171;-92
2022/01/22 02:03:23;;;;;;;14.02;6.82;;;-0.90;99.90;;;;;;5037408;28;20060;-91
2022/01/22 02:05:50;;;;;;;14.77;7.32;;;-0.90;99.90;;;;;;5039215;28;20086;-94
2022/01/22 02:08:18;;;;;;;17.60;7.57;;;-0.90;99.90;;;;;;5041982;28;20041;-93
2022/01/22 02:10:52;;;;;;;9.80;6.55;;;-0.90;99.90;;;;;;5041081;28;20025;-94
2022/01/22 02:24:18;;;;;;;13.00;6.45;;;-0.90;99.90;;;;;;5064216;28;20048;-93
2022/01/22 02:26:49;;;;;;;12.25;6.78;;;-0.90;99.90;;;;;;5037527;28;20025;-93
2022/01/22 02:29:15;;;;;;;11.18;6.72;;;-0.80;99.90;;;;;;5028819;28;20025;-96
2022/01/22 02:31:49;;;;;;;12.45;7.47;;;-0.90;99.90;;;;;;5017632;28;20033;-94
2022/01/22 02:34:34;;;;;;;13.00;6.80;;;-0.80;99.90;;;;;;5017464;28;20076;-92
2022/01/22 02:37:06;;;;;;;12.13;6.53;;;-0.80;99.90;;;;;;5017267;28;20021;-96
2022/01/22 02:42:59;;;;;;;14.27;7.05;;;-0.80;99.90;;;;;;4955806;29;20019;-96
2022/01/22 02:45:25;;;;;;;15.05;7.65;;;-0.80;99.90;;;;;;4955345;29;20118;-95
2022/01/22 02:47:51;;;;;;;13.57;7.13;;;-0.80;99.90;;;;;;4987056;28;20129;-96
2022/01/22 02:50:18;;;;;;;20.20;7.70;;;-0.90;99.90;;;;;;5017572;28;20025;-93
2022/01/22 02:52:45;;;;;;;17.95;8.05;;;-0.90;99.90;;;;;;5018536;28;20623;-93
2022/01/22 02:55:12;;;;;;;13.23;7.97;;;-0.90;99.90;;;;;;5017125;28;20120;-92
2022/01/22 02:57:41;;;;;;;12.80;7.30;;;-0.90;99.90;;;;;;5018416;28;20056;-94
2022/01/22 03:00:11;;;;;;;16.13;7.65;;;-1.00;99.90;;;;;;5019303;28;20022;-94
2022/01/22 03:02:37;;;;;;;13.27;6.90;;;-1.00;99.90;;;;;;5017019;28;20108;-92
2022/01/22 03:05:05;;;;;;;12.52;6.95;;;-0.90;99.90;;;;;;5017853;28;20121;-92
2022/01/22 03:07:31;;;;;;;12.15;6.97;;;-0.90;99.90;;;;;;5018640;28;20052;-92
2022/01/22 03:10:01;;;;;;;10.32;6.70;;;-0.90;99.90;;;;;;5017216;28;20116;-92
2022/01/22 03:27:49;;;;;;;14.15;7.30;;;-0.90;99.90;;;;;;5034833;28;20081;-92
2022/01/22 03:30:15;;;;;;;12.73;6.78;;;-0.90;99.90;;;;;;5019297;28;20064;-94
2022/01/22 03:32:46;;;;;;;10.98;6.68;;;-0.90;99.90;;;;;;5018288;28;20061;-96
2022/01/22 03:35:24;;;;;;;12.38;6.40;;;-0.90;99.90;;;;;;5027200;28;20041;-94
2022/01/22 03:37:52;;;;;;;13.27;6.82;;;-0.90;99.90;;;;;;5017435;28;20051;-95
2022/01/22 03:40:21;;;;;;;13.27;7.40;;;-0.90;99.90;;;;;;5017883;28;20539;-92
2022/01/22 03:42:47;;;;;;;12.23;6.50;;;-0.90;99.90;;;;;;5016740;28;20538;-92
2022/01/22 03:45:14;;;;;;;14.43;8.15;;;-0.90;99.90;;;;;;5016932;28;20112;-93
2022/01/22 03:47:40;;;;;;;12.38;6.70;;;-0.90;99.90;;;;;;5016702;28;20025;-93
2022/01/22 03:50:08;;;;;;;15.07;7.50;;;-0.90;99.90;;;;;;5016844;28;20025;-93
2022/01/22 03:52:34;;;;;;;14.52;7.00;;;-0.90;99.90;;;;;;5017912;28;20033;-94
2022/01/22 03:55:00;;;;;;;15.63;7.32;;;-0.90;99.90;;;;;;5017345;28;20029;-92
2022/01/22 03:57:26;;;;;;;14.23;6.85;;;-0.90;99.90;;;;;;5017383;28;20441;-92
2022/01/22 03:59:57;;;;;;;11.57;6.60;;;-0.90;99.90;;;;;;5016815;28;20026;-95
2022/01/22 04:05:06;;;;;;;20.23;8.52;;;-0.90;99.90;;;;;;5054191;28;20029;-93
2022/01/22 04:08:03;;;;;;;15.95;8.55;;;-1.00;99.90;;;;;;5036554;28;20495;-93
2022/01/22 04:10:21;;;;;;;15.45;8.02;;;-0.90;99.90;;;;;;5052428;28;20024;-93
2022/01/22 04:15:20;;;;;;;11.30;6.53;;;-0.90;99.90;;;;;;5054114;28;20033;-92
2022/01/22 04:25:59;;;;;;;14.50;7.65;;;-0.90;99.90;;;;;;5054642;28;20083;-93
2022/01/22 04:28:25;;;;;;;14.10;7.78;;;-1.00;99.90;;;;;;5040641;28;20017;-93
2022/01/22 04:30:51;;;;;;;16.33;7.90;;;-1.00;99.90;;;;;;5036115;28;20056;-92
2022/01/22 04:33:16;;;;;;;18.27;7.63;;;-1.00;99.90;;;;;;5020206;28;20125;-92
2022/01/22 04:35:42;;;;;;;14.23;7.25;;;-1.00;99.90;;;;;;5020737;28;20029;-92
2022/01/22 04:38:08;;;;;;;14.48;7.60;;;-1.00;99.90;;;;;;5019681;28;20030;-92
2022/01/22 04:40:34;;;;;;;12.45;6.82;;;-1.00;99.90;;;;;;5019559;28;20030;-94
2022/01/22 04:43:02;;;;;;;16.58;7.60;;;-1.00;99.90;;;;;;5020118;28;20056;-92
2022/01/22 04:46:16;;;;;;;14.10;7.63;;;-1.00;99.90;;;;;;5031002;28;20526;-94
2022/01/22 04:56:43;;;;;;;16.77;8.07;;;-1.10;99.90;;;;;;5037412;28;20488;-93
2022/01/22 04:59:09;;;;;;;14.88;7.75;;;-1.10;99.90;;;;;;5019113;28;20025;-92
2022/01/22 05:01:34;;;;;;;16.42;7.88;;;-1.20;99.90;;;;;;5019733;28;20029;-95
2022/01/22 05:04:00;;;;;;;18.40;9.93;;;-1.20;99.90;;;;;;5019549;28;20031;-95
2022/01/22 05:06:26;;;;;;;15.77;8.15;;;-1.20;99.90;;;;;;5019217;28;20438;-95
2022/01/22 05:08:53;;;;;;;19.65;8.02;;;-1.30;99.90;;;;;;5019354;28;20132;-95
2022/01/22 05:11:19;;;;;;;14.70;7.68;;;-1.40;99.90;;;;;;5019562;28;20056;-94
2022/01/22 05:13:46;;;;;;;19.88;9.43;;;-1.40;99.90;;;;;;5019038;28;20084;-92
2022/01/22 05:16:12;;;;;;;21.10;9.90;;;-1.50;99.90;;;;;;5019599;28;20087;-92
2022/01/22 05:18:47;;;;;;;20.48;9.65;;;-1.50;99.90;;;;;;5018836;28;20116;-92
2022/01/22 05:21:16;;;;;;;19.30;9.85;;;-1.50;99.90;;;;;;5018875;28;20116;-92
2022/01/22 05:23:43;;;;;;;19.38;9.57;;;-1.60;99.90;;;;;;5018654;28;20028;-92
2022/01/22 05:26:25;;;;;;;18.60;9.48;;;-1.60;99.90;;;;;;5032444;28;20079;-92
2022/01/22 05:29:16;;;;;;;17.48;9.27;;;-1.50;99.90;;;;;;5039349;28;20108;-93
2022/01/22 05:39:24;;;;;;;14.98;7.65;;;-1.70;99.90;;;;;;5056466;28;20021;-92
2022/01/22 05:41:50;;;;;;;14.77;7.28;;;-1.70;99.90;;;;;;5038239;28;20427;-92
2022/01/22 05:44:17;;;;;;;16.65;8.45;;;-1.60;99.90;;;;;;5038252;28;20031;-92
2022/01/22 05:46:43;;;;;;;22.55;10.45;;;-1.60;99.90;;;;;;5037747;28;20064;-91
2022/01/22 05:49:09;;;;;;;21.17;10.27;;;-1.60;99.90;;;;;;5021631;28;20053;-91
2022/01/22 05:51:37;;;;;;;25.50;12.05;;;-1.50;99.90;;;;;;5018850;28;20029;-92
2022/01/22 05:59:38;;;;;;;31.55;12.52;;;-1.50;99.90;;;;;;5037208;28;20060;-92
2022/01/22 06:02:09;;;;;;;26.25;10.52;;;-1.50;99.90;;;;;;5030027;28;20009;-94
2022/01/22 06:04:35;;;;;;;25.27;9.68;;;-1.40;99.90;;;;;;5024828;28;20463;-92
2022/01/22 06:07:02;;;;;;;26.20;11.52;;;-1.40;99.90;;;;;;5030295;28;20063;-93
2022/01/22 06:09:28;;;;;;;30.38;11.75;;;-1.30;99.90;;;;;;5018999;28;20034;-91
2022/01/22 06:14:20;;;;;;;34.00;12.73;;;-1.30;99.90;;;;;;5035575;28;20017;-94
2022/01/22 06:16:45;;;;;;;31.25;12.00;;;-1.20;99.90;;;;;;5018856;28;20040;-92
2022/01/22 06:19:11;;;;;;;29.95;11.90;;;-1.30;99.90;;;;;;5035641;28;20033;-92
2022/01/22 06:21:37;;;;;;;26.13;11.65;;;-1.20;99.90;;;;;;5037683;28;20021;-91
2022/01/22 14:12:08;;;;;;;16.02;7.63;;;-0.40;99.90;;;;;;5097485;28;20428;-96
2022/01/22 14:15:02;;;;;;;27.23;12.48;;;-0.50;99.90;;;;;;5100613;28;20036;-96
2022/01/22 14:17:47;;;;;;;24.42;11.07;;;-0.60;99.90;;;;;;5100725;28;20025;-96
2022/01/22 14:20:13;;;;;;;22.42;10.45;;;-0.60;99.90;;;;;;5094311;28;20470;-95
2022/01/22 14:22:57;;;;;;;25.05;11.95;;;-0.70;99.90;;;;;;5094078;28;20074;-96
2022/01/22 14:25:24;;;;;;;20.55;10.00;;;-0.70;99.90;;;;;;5095238;28;20024;-96
2022/01/22 14:28:01;;;;;;;25.50;11.55;;;-0.70;99.90;;;;;;5096229;28;20025;-94
2022/01/22 14:30:34;;;;;;;28.67;12.05;;;-0.70;99.90;;;;;;5091720;28;20122;-92
2022/01/22 14:33:00;;;;;;;27.63;12.85;;;-0.70;99.90;;;;;;5091008;28;20020;-93
2022/01/22 14:35:27;;;;;;;26.77;14.10;;;-0.80;99.90;;;;;;5091144;28;20032;-95
2022/01/22 14:37:57;;;;;;;26.23;12.98;;;-0.70;99.90;;;;;;5092295;28;20020;-96
2022/01/22 14:46:02;;;;;;;17.60;8.55;;;-0.60;99.90;;;;;;5096821;22;20206;-95
2022/01/22 14:48:35;;;;;;;14.80;8.85;;;-0.70;99.90;;;;;;5028903;28;20031;-96
2022/01/22 14:51:02;;;;;;;13.95;8.55;;;-0.80;99.90;;;;;;5005584;28;20026;-96
2022/01/22 14:56:21;;;;;;;20.48;9.52;;;-0.80;99.90;;;;;;5013450;28;20684;-96
2022/01/22 14:58:46;;;;;;;27.67;14.38;;;-0.90;99.90;;;;;;5012085;28;20032;-91
2022/01/22 15:01:12;;;;;;;52.55;21.63;;;-0.90;99.90;;;;;;5032372;28;20077;-93
2022/01/22 15:03:37;;;;;;;41.35;18.45;;;-0.90;99.90;;;;;;5013780;28;20025;-94
2022/01/22 15:06:03;;;;;;;30.95;13.32;;;-0.90;99.90;;;;;;5013434;28;20056;-95
2022/01/22 15:08:29;;;;;;;24.15;11.85;;;-0.90;99.90;;;;;;5013304;28;20464;-95
2022/01/22 15:10:55;;;;;;;23.25;11.70;;;-0.90;99.90;;;;;;5013334;28;20038;-95
2022/01/22 15:13:21;;;;;;;24.23;12.15;;;-1.00;99.90;;;;;;5013798;28;20072;-94
2022/01/22 15:15:48;;;;;;;31.85;16.73;;;-1.00;99.90;;;;;;5014267;28;20113;-95
2022/01/22 15:18:37;;;;;;;44.70;24.25;;;-1.10;99.90;;;;;;5013166;28;20396;-95
2022/01/22 15:21:19;;;;;;;35.10;19.00;;;-1.10;99.90;;;;;;5030390;28;20499;-96
2022/01/22 15:23:46;;;;;;;27.70;14.60;;;-1.10;99.90;;;;;;5014375;28;20183;-96
2022/01/22 15:26:24;;;;;;;22.52;12.90;;;-1.10;99.90;;;;;;5000775;28;20034;-96
2022/01/22 15:28:50;;;;;;;26.40;13.82;;;-1.10;99.90;;;;;;5018112;28;20085;-96
2022/01/22 15:31:30;;;;;;;43.05;22.30;;;-1.20;99.90;;;;;;5017350;28;20046;-96
2022/01/22 15:39:10;;;;;;;33.60;15.68;;;-1.10;99.90;;;;;;5779577;23;20112;-96
2022/01/22 15:41:43;;;;;;;46.78;18.95;;;-1.20;99.90;;;;;;5809644;23;20110;-96
2022/01/22 15:44:09;;;;;;;42.20;19.38;;;-1.20;99.90;;;;;;4970221;28;20058;-96
2022/01/22 15:46:42;;;;;;;36.05;19.20;;;-1.20;99.90;;;;;;4965607;28;20050;-96
2022/01/22 15:49:14;;;;;;;45.72;21.30;;;-1.20;99.90;;;;;;4964284;28;20535;-96
2022/01/22 15:51:41;;;;;;;66.40;30.33;;;-1.30;99.90;;;;;;4960919;28;20500;-96
2022/01/22 15:54:07;;;;;;;110.30;43.03;;;-1.30;99.90;;;;;;4960706;28;20407;-96
2022/01/22 15:56:33;;;;;;;138.55;53.83;;;-1.30;99.90;;;;;;4960972;28;20027;-96
2022/01/22 15:58:58;;;;;;;147.40;55.55;;;-1.40;99.90;;;;;;4961549;28;20370;-96
2022/01/22 16:01:26;;;;;;;84.55;35.25;;;-1.40;99.90;;;;;;4961061;28;20496;-96
2022/01/22 16:03:56;;;;;;;58.42;27.95;;;-1.50;99.90;;;;;;4960918;28;20117;-96
2022/01/22 16:06:27;;;;;;;51.75;24.42;;;-1.50;99.90;;;;;;4961090;28;20030;-95
2022/01/22 16:08:53;;;;;;;53.72;21.38;;;-1.60;99.90;;;;;;4960574;28;20027;-95
2022/01/22 16:11:19;;;;;;;36.15;17.80;;;-1.70;99.90;;;;;;4961617;28;20038;-96
2022/01/22 16:13:45;;;;;;;42.20;19.35;;;-1.80;99.90;;;;;;4960760;28;20019;-96
2022/01/22 16:16:12;;;;;;;46.03;22.13;;;-2.00;99.90;;;;;;4960673;28;20077;-95
2022/01/22 16:18:38;;;;;;;60.55;27.00;;;-2.10;99.90;;;;;;4961376;28;20023;-96
2022/01/22 16:21:04;;;;;;;53.35;26.75;;;-2.20;99.90;;;;;;4960657;28;20026;-95
2022/01/22 16:23:30;;;;;;;50.80;24.10;;;-2.30;99.90;;;;;;4960251;28;20031;-96
2022/01/22 16:25:56;;;;;;;48.72;23.60;;;-2.40;99.90;;;;;;4960221;28;20031;-96
2022/01/22 16:28:21;;;;;;;46.75;22.67;;;-2.50;99.90;;;;;;4960248;28;20153;-96
2022/01/22 16:30:47;;;;;;;46.58;22.20;;;-2.60;99.90;;;;;;4960634;28;20122;-96
2022/01/22 16:33:14;;;;;;;42.92;19.98;;;-2.60;99.90;;;;;;4959278;28;20038;-96
2022/01/22 16:35:40;;;;;;;43.92;22.73;;;-2.70;99.90;;;;;;4960236;28;20600;-96
2022/01/22 16:38:07;;;;;;;53.95;22.95;;;-2.70;99.90;;;;;;4963763;28;20046;-96
2022/01/22 16:40:33;;;;;;;45.97;21.95;;;-2.80;99.90;;;;;;4960033;28;20031;-96
2022/01/22 16:43:02;;;;;;;52.47;23.83;;;-2.80;99.90;;;;;;4984921;28;20057;-96
2022/01/22 16:46:10;;;;;;;55.10;24.27;;;-2.90;99.90;;;;;;4999046;28;20105;-95
2022/01/22 16:51:29;;;;;;;55.22;25.77;;;-3.00;99.90;;;;;;5009269;28;20033;-96
2022/01/22 16:56:40;;;;;;;51.20;24.10;;;-3.10;99.90;;;;;;4996992;28;20018;-96
2022/01/22 16:59:08;;;;;;;48.38;22.92;;;-3.20;99.90;;;;;;4995653;28;20034;-96
2022/01/22 17:01:39;;;;;;;58.50;27.00;;;-3.20;99.90;;;;;;4995172;28;20022;-96
2022/01/22 17:04:11;;;;;;;62.47;28.95;;;-3.30;99.90;;;;;;4999727;28;20030;-96
2022/01/22 17:06:39;;;;;;;69.72;32.15;;;-3.40;99.90;;;;;;5002567;28;20097;-95
2022/01/22 17:14:39;;;;;;;59.42;27.65;;;-3.50;99.90;;;;;;5003048;28;20384;-95
2022/01/22 17:17:06;;;;;;;55.03;26.48;;;-3.60;99.90;;;;;;5002284;28;20072;-96
2022/01/22 17:19:32;;;;;;;55.05;26.58;;;-3.70;99.90;;;;;;4997832;28;20113;-96
2022/01/22 17:21:59;;;;;;;57.55;26.65;;;-3.70;99.90;;;;;;4999514;28;20069;-96
2022/01/22 17:24:25;;;;;;;60.10;26.30;;;-3.70;99.90;;;;;;5009943;28;20030;-96
2022/01/22 17:26:52;;;;;;;58.53;24.35;;;-3.80;99.90;;;;;;4997262;28;20358;-96
2022/01/22 17:29:19;;;;;;;66.85;26.27;;;-3.90;99.90;;;;;;4996263;28;20030;-96
2022/01/22 17:31:44;;;;;;;58.92;26.15;;;-3.90;99.90;;;;;;4995014;28;20464;-96
2022/01/22 17:34:10;;;;;;;61.60;26.77;;;-3.90;99.90;;;;;;4997506;28;20031;-96
2022/01/22 17:36:38;;;;;;;59.25;25.50;;;-3.90;99.90;;;;;;4995232;28;20461;-96
2022/01/22 17:39:15;;;;;;;63.22;26.48;;;-3.90;99.90;;;;;;4997738;28;20090;-96
2022/01/22 17:41:44;;;;;;;61.15;26.35;;;-3.80;99.90;;;;;;4993574;28;20058;-96
2022/01/22 17:44:12;;;;;;;64.60;28.00;;;-3.70;99.90;;;;;;4962277;28;20031;-96
2022/01/22 18:13:02;;;;;;;65.00;29.08;;;-2.60;99.90;;;;;;6008592;23;20032;-96
2022/01/22 18:27:10;;;;;;;42.50;22.38;;;-2.10;99.90;;;;;;4995507;28;20095;-96
2022/01/22 18:30:27;;;;;;;49.28;24.83;;;-1.90;99.90;;;;;;4995492;28;20035;-96
2022/01/22 18:41:06;;;;;;;48.20;22.10;;;-1.60;99.90;;;;;;5084716;23;20131;-96
2022/01/22 18:43:49;;;;;;;43.05;20.00;;;-1.50;99.90;;;;;;4997716;28;20019;-96
2022/01/22 18:46:35;;;;;;;49.00;21.92;;;-1.50;99.90;;;;;;4991909;28;20023;-96
2022/01/22 18:49:01;;;;;;;46.55;22.80;;;-1.50;99.90;;;;;;4968972;28;20051;-96
2022/01/22 18:51:28;;;;;;;53.33;25.55;;;-1.40;99.90;;;;;;4969205;28;20118;-96
2022/01/22 19:52:54;;;;;;;13.02;6.97;;;-1.40;99.90;;;;;;5077969;23;20051;-96
2022/01/22 19:55:20;;;;;;;18.15;8.07;;;-1.40;99.90;;;;;;4945076;29;20038;-96
2022/01/22 19:57:46;;;;;;;12.45;6.97;;;-1.40;99.90;;;;;;4943147;29;20027;-96
2022/01/22 20:00:13;;;;;;;11.35;6.38;;;-1.40;99.90;;;;;;4944914;29;20023;-96
2022/01/22 20:02:51;;;;;;;10.60;6.43;;;-1.50;99.90;;;;;;4952099;29;20118;-96
2022/01/22 20:05:17;;;;;;;10.32;6.22;;;-1.50;99.90;;;;;;4952120;29;20024;-96
2022/01/22 20:07:43;;;;;;;12.38;7.47;;;-1.50;99.90;;;;;;4948380;29;20059;-96
2022/01/22 20:10:19;;;;;;;12.20;6.63;;;-1.50;99.90;;;;;;4948992;29;20031;-96
2022/01/22 20:12:45;;;;;;;12.80;6.90;;;-1.50;99.90;;;;;;4952938;29;20471;-96
2022/01/22 20:15:11;;;;;;;12.93;7.25;;;-1.50;99.90;;;;;;4945013;29;20023;-96
2022/01/22 20:17:37;;;;;;;10.90;6.90;;;-1.60;99.90;;;;;;4954070;29;20033;-96
2022/01/22 20:20:09;;;;;;;17.30;7.72;;;-1.60;99.90;;;;;;4959042;29;20042;-96
2022/01/22 20:22:35;;;;;;;13.23;7.03;;;-1.60;99.90;;;;;;4931431;29;20482;-96
2022/01/22 20:25:00;;;;;;;13.73;7.35;;;-1.70;99.90;;;;;;4957525;29;20112;-96
2022/01/22 20:27:28;;;;;;;14.57;7.22;;;-1.70;99.90;;;;;;4947885;29;20027;-96
2022/01/22 20:41:27;;;;;;;11.52;6.25;;;-1.80;99.90;;;;;;5699592;23;20070;-96
2022/01/22 20:44:46;;;;;;;12.38;6.75;;;-1.80;99.90;;;;;;5256607;23;20082;-95
2022/01/22 20:47:26;;;;;;;10.32;5.80;;;-1.80;99.90;;;;;;5564597;23;20057;-96
2022/01/22 20:52:38;;;;;;;13.30;7.65;;;-1.90;99.90;;;;;;5548702;23;20065;-96
2022/01/22 20:55:14;;;;;;;10.27;6.40;;;-1.90;99.90;;;;;;4964432;28;20061;-96
2022/01/22 21:39:42;;;;;;;15.55;8.70;;;-1.90;99.90;;;;;;4970450;28;20050;-96
2022/01/22 21:42:13;;;;;;;12.00;7.75;;;-1.80;99.90;;;;;;4957289;29;20031;-96
2022/01/22 21:44:40;;;;;;;14.00;7.65;;;-1.80;99.90;;;;;;4956202;29;20047;-96
2022/01/22 21:47:06;;;;;;;11.15;6.68;;;-1.80;99.90;;;;;;4954651;29;20069;-96
2022/01/22 21:49:32;;;;;;;15.85;7.45;;;-1.70;99.90;;;;;;4949508;29;20024;-96
2022/01/22 21:51:58;;;;;;;12.40;6.88;;;-1.70;99.90;;;;;;4948402;29;20037;-96
2022/01/22 21:54:24;;;;;;;10.95;6.75;;;-1.70;99.90;;;;;;4944125;29;20082;-96
2022/01/22 21:56:50;;;;;;;12.45;7.75;;;-1.70;99.90;;;;;;4941544;29;20024;-96
2022/01/22 21:59:16;;;;;;;13.45;7.55;;;-1.70;99.90;;;;;;4943112;29;20027;-96
2022/01/22 22:01:43;;;;;;;17.65;7.82;;;-1.80;99.90;;;;;;4943215;29;20035;-96
2022/01/22 22:04:08;;;;;;;11.82;7.00;;;-1.80;99.90;;;;;;4946452;29;20024;-96
2022/01/22 22:06:35;;;;;;;15.15;8.20;;;-1.80;99.90;;;;;;4942139;29;20034;-96
2022/01/22 22:09:00;;;;;;;18.15;8.70;;;-1.80;99.90;;;;;;4942345;29;20031;-96
2022/01/22 22:11:26;;;;;;;20.35;9.40;;;-1.80;99.90;;;;;;4943119;29;20125;-96
2022/01/22 22:13:52;;;;;;;21.73;9.65;;;-1.90;99.90;;;;;;4942393;29;20031;-96
2022/01/22 22:16:18;;;;;;;18.23;9.18;;;-1.90;99.90;;;;;;4943954;29;20083;-96
2022/01/22 22:18:44;;;;;;;19.10;10.48;;;-1.90;99.90;;;;;;4945422;29;20023;-96
2022/01/22 22:21:12;;;;;;;19.95;9.55;;;-1.90;99.90;;;;;;4943512;29;20099;-96
2022/01/22 22:23:41;;;;;;;17.05;8.40;;;-1.90;99.90;;;;;;4942994;29;20032;-96
2022/01/22 22:26:08;;;;;;;16.55;9.40;;;-1.90;99.90;;;;;;4944325;29;20038;-96
2022/01/22 22:28:34;;;;;;;15.65;8.50;;;-1.90;99.90;;;;;;4944555;29;20489;-96
2022/01/22 22:31:08;;;;;;;13.15;7.55;;;-1.90;99.90;;;;;;4945305;29;20125;-96
2022/01/22 22:33:37;;;;;;;13.38;6.55;;;-1.90;99.90;;;;;;4950848;29;20031;-96
2022/01/22 22:36:03;;;;;;;13.73;7.40;;;-1.90;99.90;;;;;;4950511;29;20027;-96
2022/01/22 22:38:29;;;;;;;12.23;6.97;;;-2.00;99.90;;;;;;4946832;29;20144;-96
2022/01/22 22:40:57;;;;;;;19.15;8.27;;;-2.00;99.90;;;;;;4947190;29;20051;-96
2022/01/22 22:43:23;;;;;;;15.27;8.02;;;-1.90;99.90;;;;;;4948024;29;20032;-96
2022/01/22 22:45:49;;;;;;;18.45;9.15;;;-1.90;99.90;;;;;;4948250;29;20034;-96
2022/01/22 22:48:16;;;;;;;19.33;9.10;;;-1.90;99.90;;;;;;4957018;29;20012;-96
2022/01/22 22:50:42;;;;;;;23.65;10.40;;;-1.90;99.90;;;;;;4948213;29;20043;-96
2022/01/22 22:53:08;;;;;;;24.30;10.23;;;-1.90;99.90;;;;;;4942822;29;20031;-96
2022/01/22 22:55:34;;;;;;;27.08;11.52;;;-1.90;99.90;;;;;;4943469;29;20023;-96
2022/01/22 22:58:00;;;;;;;31.15;13.27;;;-1.90;99.90;;;;;;4942069;29;20028;-96
2022/01/22 23:00:43;;;;;;;29.95;13.07;;;-1.90;99.90;;;;;;4942582;29;20027;-96
2022/01/22 23:03:15;;;;;;;25.15;12.73;;;-1.90;99.90;;;;;;4941401;29;20098;-96
2022/01/22 23:05:41;;;;;;;30.48;14.27;;;-1.90;99.90;;;;;;4941824;29;20028;-96
2022/01/22 23:08:07;;;;;;;25.23;12.95;;;-1.90;99.90;;;;;;4941423;29;20027;-96
2022/01/22 23:10:35;;;;;;;26.15;12.27;;;-2.00;99.90;;;;;;4941747;29;20546;-96
2022/01/22 23:13:01;;;;;;;26.77;12.38;;;-2.10;99.90;;;;;;4941487;29;20080;-96
2022/01/22 23:15:27;;;;;;;23.15;11.13;;;-2.10;99.90;;;;;;4941576;29;20538;-96
2022/01/22 23:25:42;;;;;;;15.45;8.50;;;-2.10;99.90;;;;;;4943180;29;20023;-96
2022/01/22 23:28:13;;;;;;;11.75;7.70;;;-2.20;99.90;;;;;;4941603;29;20083;-96
2022/01/22 23:30:43;;;;;;;;;;;-2.20;99.90;;;;;;4941410;29;20032;-96
2022/01/22 23:33:28;;;;;;;15.32;8.85;;;-2.20;99.90;;;;;;4940206;29;20002;-96
2022/01/22 23:36:12;;;;;;;13.73;7.72;;;-2.20;99.90;;;;;;4939742;29;20032;-96
2022/01/22 23:54:56;;;;;;;15.35;8.63;;;-2.40;99.90;;;;;;4943381;29;20387;-96
